KHIO/HIO METAR and TAF weather

Enter ICAO airport designator
Station Type Date Time Source
KHIO METAR 2021/04/13 07:53 UTC NOAA

KHIO 130753Z AUTO 30005KT 10SM CLR 05/M03 A3017 RMK AO2 SLP218 T00501028 401831006


Station Type Date Time Source
KHIO Decoded METAR 2021/04/13 07:53 UTC NOAA

PORTLAND-HILLSBORO AIRPORT, OR, United States (KHIO) 45-33N 122-57W 68M
Apr 13, 2021 - 03:53 AM EDT / 2021.04.13 0753 UTC
Wind: from the WNW (300 degrees) at 6 MPH (5 KT):0
Visibility: 10 mile(s):0
Sky conditions: clear
Temperature: 41.0 F (5.0 C)
Dew Point: 27.0 F (-2.8 C)
Relative Humidity: 57%
Pressure (altimeter): 30.17 in. Hg (1021 hPa)
ob: KHIO 130753Z AUTO 30005KT 10SM CLR 05/M03 A3017 RMK AO2 SLP218 T00501028 401831006
cycle: 8

Station Type Date Time Source
KHIO TAF 2021/04/13 06:22 UTC NOAA

TAF KHIO 130520Z 1306/1406 02008KT P6SM SKC
FM130700 02009KT P6SM SKC WS020/07030KT
FM131000 36007KT P6SM SKC WS020/06030KT
FM131100 35007KT P6SM SKC
FM132200 05009KT P6SM SKC

Example: see airport list